Time;durP1;ratioP1;P1;durP2;ratioP2;P2;SDS_P1;SDS_P2;PMS_P1;PMS_P2;Temp;Humidity;BMP_temperature;BMP_pressure;BME280_temperature;BME280_humidity;BME280_pressure;Samples;Min_cycle;Max_cycle;Signal;HPM_P1;HPM_P2
2021/05/23 00:01:07;;;;;;;4.07;1.23;;;13.00;93.30;;;;;;5011691;28;20663;-49
2021/05/23 00:03:33;;;;;;;3.30;1.20;;;13.00;93.40;;;;;;5011037;28;20988;-49
2021/05/23 00:06:00;;;;;;;1.67;1.07;;;12.90;93.50;;;;;;5011929;28;20652;-49
2021/05/23 00:08:27;;;;;;;1.60;0.77;;;12.90;93.60;;;;;;5011544;28;21073;-48
2021/05/23 00:10:57;;;;;;;1.73;1.07;;;12.80;93.60;;;;;;5011862;28;20694;-48
2021/05/23 00:13:26;;;;;;;3.40;0.70;;;12.80;93.70;;;;;;5011575;28;20691;-49
2021/05/23 00:15:54;;;;;;;3.20;1.10;;;12.80;93.80;;;;;;5011530;28;21305;-49
2021/05/23 00:18:20;;;;;;;3.77;2.53;;;12.80;93.90;;;;;;5011422;28;20635;-48
2021/05/23 00:20:48;;;;;;;2.07;1.47;;;12.80;93.80;;;;;;5012103;28;20628;-47
2021/05/23 00:23:14;;;;;;;2.50;1.23;;;12.70;93.90;;;;;;5011588;28;20693;-48
2021/05/23 00:25:41;;;;;;;2.57;1.50;;;12.70;94.00;;;;;;5011208;28;20655;-48
2021/05/23 00:28:09;;;;;;;1.17;0.97;;;12.70;93.90;;;;;;5010900;28;20676;-48
2021/05/23 00:30:36;;;;;;;1.60;1.40;;;12.70;94.00;;;;;;5011046;28;20693;-48
2021/05/23 00:33:03;;;;;;;3.20;1.37;;;12.80;94.00;;;;;;5010816;28;20632;-48
2021/05/23 00:35:29;;;;;;;3.37;1.63;;;12.70;94.00;;;;;;5010887;28;21226;-48
2021/05/23 00:37:56;;;;;;;1.70;1.33;;;12.70;94.00;;;;;;5010595;28;20664;-48
2021/05/23 00:40:23;;;;;;;3.47;1.33;;;12.70;94.10;;;;;;5013027;28;20632;-48
2021/05/23 00:42:50;;;;;;;3.57;1.73;;;12.70;94.10;;;;;;5010476;28;20939;-49
2021/05/23 00:45:18;;;;;;;2.43;1.27;;;12.70;94.10;;;;;;5011075;28;20664;-48
2021/05/23 00:47:45;;;;;;;2.53;1.27;;;12.80;94.10;;;;;;5010616;28;20627;-48
2021/05/23 00:50:13;;;;;;;1.80;1.10;;;12.70;94.00;;;;;;5010518;28;20667;-48
2021/05/23 00:52:40;;;;;;;1.27;0.90;;;12.70;94.10;;;;;;5010555;28;20644;-48
2021/05/23 00:55:07;;;;;;;2.47;1.43;;;12.70;94.10;;;;;;5010196;28;21192;-48
2021/05/23 00:57:34;;;;;;;3.73;1.27;;;12.70;94.10;;;;;;5010620;28;20707;-48
2021/05/23 01:00:01;;;;;;;2.60;1.97;;;12.70;94.20;;;;;;5010756;28;20632;-48
2021/05/23 01:02:45;;;;;;;2.30;2.10;;;12.60;94.10;;;;;;5010933;28;20635;-48
2021/05/23 01:05:13;;;;;;;4.53;1.70;;;12.60;94.10;;;;;;5010565;28;20666;-47
2021/05/23 01:07:41;;;;;;;2.40;1.53;;;12.60;94.30;;;;;;5010259;28;20690;-48
2021/05/23 01:10:09;;;;;;;2.80;1.60;;;12.60;94.20;;;;;;5009636;28;20659;-48
2021/05/23 01:13:08;;;;;;;1.93;1.73;;;12.60;94.20;;;;;;5010188;28;20698;-48
2021/05/23 01:15:36;;;;;;;9.40;1.60;;;12.60;94.20;;;;;;4993062;28;20651;-48
2021/05/23 01:18:05;;;;;;;2.73;1.57;;;12.60;94.10;;;;;;5010002;28;20667;-48
2021/05/23 01:20:55;;;;;;;2.53;1.57;;;12.60;94.20;;;;;;5010306;28;20617;-48
2021/05/23 01:23:34;;;;;;;1.77;1.10;;;12.60;94.30;;;;;;5000116;28;20647;-48
2021/05/23 01:26:06;;;;;;;2.70;1.73;;;12.60;94.20;;;;;;5009955;28;20659;-49
2021/05/23 01:28:35;;;;;;;3.27;1.73;;;12.50;94.30;;;;;;5009753;28;20662;-48
2021/05/23 01:31:02;;;;;;;4.00;1.97;;;12.60;94.40;;;;;;5010499;28;21034;-48
2021/05/23 01:33:29;;;;;;;3.40;1.40;;;12.60;94.30;;;;;;5010025;28;20690;-48
2021/05/23 01:35:56;;;;;;;2.07;1.90;;;12.60;94.40;;;;;;5010152;28;21278;-47
2021/05/23 01:38:23;;;;;;;1.90;1.67;;;12.60;94.30;;;;;;5009543;28;20635;-47
2021/05/23 01:40:51;;;;;;;4.00;2.43;;;12.70;94.30;;;;;;5010032;28;20672;-55
2021/05/23 01:43:19;;;;;;;3.80;1.77;;;12.70;94.20;;;;;;5010047;28;20685;-48
2021/05/23 01:45:47;;;;;;;3.13;1.80;;;12.70;94.20;;;;;;5010214;28;20787;-48
2021/05/23 01:48:13;;;;;;;2.90;2.10;;;12.80;94.20;;;;;;5009583;28;20702;-48
2021/05/23 01:50:40;;;;;;;3.77;1.53;;;12.80;94.00;;;;;;5009934;28;20623;-48
2021/05/23 01:53:07;;;;;;;2.53;2.00;;;12.80;94.00;;;;;;5009965;28;20742;-48
2021/05/23 01:55:35;;;;;;;3.87;1.57;;;12.80;94.00;;;;;;5009427;28;21184;-48
2021/05/23 01:58:01;;;;;;;7.50;1.83;;;12.80;93.90;;;;;;5009409;28;20737;-48
2021/05/23 02:00:30;;;;;;;4.77;1.63;;;12.80;93.90;;;;;;5009951;28;20636;-47
2021/05/23 02:02:58;;;;;;;6.33;1.63;;;12.80;93.90;;;;;;5009567;28;20628;-48
2021/05/23 02:05:25;;;;;;;5.03;1.63;;;12.70;93.90;;;;;;5009529;28;20660;-48
2021/05/23 02:07:52;;;;;;;4.20;2.80;;;12.70;93.90;;;;;;5009308;28;21029;-49
2021/05/23 02:10:19;;;;;;;2.37;1.50;;;12.60;94.10;;;;;;5009762;28;20690;-48
2021/05/23 02:12:46;;;;;;;2.00;1.10;;;12.70;94.10;;;;;;5009796;28;20620;-48
2021/05/23 02:15:14;;;;;;;2.40;1.87;;;12.70;94.10;;;;;;5009829;28;21066;-48
2021/05/23 02:17:42;;;;;;;2.70;1.80;;;12.70;94.20;;;;;;5009498;28;20745;-48
2021/05/23 02:20:11;;;;;;;1.53;1.00;;;12.60;94.30;;;;;;5009424;28;20651;-48
2021/05/23 02:22:38;;;;;;;4.73;2.07;;;12.60;94.20;;;;;;5009562;28;21038;-47
2021/05/23 02:25:06;;;;;;;1.63;1.20;;;12.70;94.30;;;;;;5009434;28;21184;-47
2021/05/23 02:27:36;;;;;;;2.40;1.67;;;12.60;94.30;;;;;;5012039;28;21180;-48
2021/05/23 02:30:07;;;;;;;3.30;1.60;;;12.50;94.30;;;;;;5013812;28;20631;-48
2021/05/23 02:32:33;;;;;;;2.23;1.30;;;12.50;94.40;;;;;;5013401;28;20709;-47
2021/05/23 02:35:01;;;;;;;3.90;1.30;;;12.50;94.50;;;;;;5013232;28;21157;-48
2021/05/23 02:37:28;;;;;;;2.00;1.53;;;12.50;94.80;;;;;;5012664;28;21035;-49
2021/05/23 02:39:54;;;;;;;4.03;1.77;;;12.50;94.40;;;;;;5013260;28;20639;-48
2021/05/23 02:42:21;;;;;;;2.27;1.40;;;12.50;94.40;;;;;;5013299;28;21115;-48
2021/05/23 02:44:48;;;;;;;3.67;2.10;;;12.60;94.40;;;;;;5013045;28;20643;-48
2021/05/23 02:47:14;;;;;;;2.23;1.83;;;12.60;94.10;;;;;;5012064;28;20644;-48
2021/05/23 02:49:42;;;;;;;3.90;1.83;;;12.60;94.10;;;;;;5013092;28;21180;-48
2021/05/23 02:52:10;;;;;;;2.10;1.10;;;12.50;94.10;;;;;;5013133;28;20641;-47
2021/05/23 02:54:37;;;;;;;4.30;1.70;;;12.50;94.10;;;;;;5012766;28;20631;-48
2021/05/23 02:57:05;;;;;;;3.00;1.27;;;12.60;94.10;;;;;;5012840;28;21077;-48
2021/05/23 02:59:32;;;;;;;1.20;0.93;;;12.60;94.10;;;;;;5012903;28;21240;-48
2021/05/23 03:01:58;;;;;;;3.23;1.17;;;12.50;94.00;;;;;;5013055;28;20621;-49
2021/05/23 03:04:25;;;;;;;2.00;1.27;;;12.60;93.90;;;;;;5011896;28;20698;-48
2021/05/23 03:06:52;;;;;;;4.57;2.07;;;12.50;93.80;;;;;;5012782;28;20682;-48
2021/05/23 03:09:19;;;;;;;3.27;1.70;;;12.50;93.80;;;;;;5012232;28;21152;-48
2021/05/23 03:11:47;;;;;;;2.87;1.20;;;12.50;93.80;;;;;;5012739;28;20635;-48
2021/05/23 03:14:14;;;;;;;1.63;1.00;;;12.50;93.80;;;;;;5012959;28;20637;-48
2021/05/23 03:16:40;;;;;;;4.83;2.03;;;12.50;93.70;;;;;;5012303;28;20751;-47
2021/05/23 03:19:07;;;;;;;2.80;1.93;;;12.60;93.80;;;;;;5011881;28;20715;-49
2021/05/23 03:21:34;;;;;;;2.50;1.37;;;12.60;93.80;;;;;;5012425;28;20628;-48
2021/05/23 03:24:01;;;;;;;1.80;1.07;;;12.60;93.70;;;;;;5012621;28;20628;-48
2021/05/23 03:26:29;;;;;;;1.53;1.07;;;12.60;93.70;;;;;;5012080;28;21010;-48
2021/05/23 03:28:55;;;;;;;2.60;1.03;;;12.60;93.60;;;;;;5012360;28;20669;-48
2021/05/23 03:31:22;;;;;;;2.10;1.10;;;12.60;93.60;;;;;;5012134;28;20997;-48
2021/05/23 03:33:49;;;;;;;3.50;1.20;;;12.50;94.00;;;;;;5012481;28;20707;-49
2021/05/23 03:36:15;;;;;;;1.33;1.10;;;12.50;93.80;;;;;;5012150;28;21256;-48
2021/05/23 03:38:43;;;;;;;1.20;0.73;;;12.50;93.80;;;;;;5011104;28;20691;-48
2021/05/23 03:41:10;;;;;;;3.47;1.50;;;12.50;93.80;;;;;;5012310;28;20694;-48
2021/05/23 03:43:38;;;;;;;2.67;1.40;;;12.50;93.80;;;;;;5011673;28;20715;-48
2021/05/23 03:46:05;;;;;;;1.90;1.23;;;12.50;93.70;;;;;;5011856;28;20667;-49
2021/05/23 03:48:33;;;;;;;0.97;0.87;;;12.50;93.60;;;;;;5012069;28;21241;-48
2021/05/23 03:50:59;;;;;;;2.87;1.00;;;12.50;93.40;;;;;;5012299;28;20651;-47
2021/05/23 03:53:26;;;;;;;2.33;1.40;;;12.50;93.40;;;;;;5011923;28;20689;-48
2021/05/23 03:55:53;;;;;;;1.90;1.27;;;12.50;93.40;;;;;;5011892;28;20651;-47
2021/05/23 03:58:20;;;;;;;1.70;1.40;;;12.40;93.30;;;;;;5011501;28;20660;-48
2021/05/23 04:00:47;;;;;;;5.13;2.00;;;12.40;93.20;;;;;;5011434;28;20739;-51
2021/05/23 04:03:14;;;;;;;1.10;0.87;;;12.30;93.30;;;;;;5011964;28;21196;-47
2021/05/23 04:05:41;;;;;;;1.50;1.23;;;12.30;93.30;;;;;;5011711;28;21247;-47
2021/05/23 04:08:08;;;;;;;1.00;0.70;;;12.30;93.50;;;;;;5011415;28;21205;-48
2021/05/23 04:10:37;;;;;;;2.97;1.50;;;12.20;93.40;;;;;;5011912;28;20634;-47
2021/05/23 04:13:05;;;;;;;1.43;0.90;;;12.20;93.50;;;;;;5011426;28;20627;-48
2021/05/23 04:15:31;;;;;;;9.57;1.10;;;12.20;93.40;;;;;;5011396;28;20651;-48
2021/05/23 04:17:59;;;;;;;3.80;1.73;;;12.20;93.30;;;;;;5011309;28;20660;-48
2021/05/23 04:20:26;;;;;;;2.20;1.27;;;12.20;93.30;;;;;;5011673;28;21196;-48
2021/05/23 04:22:53;;;;;;;3.80;1.63;;;12.20;93.30;;;;;;5011587;28;20624;-48
2021/05/23 04:25:20;;;;;;;1.23;1.07;;;12.20;93.40;;;;;;5011081;28;20647;-48
2021/05/23 04:27:50;;;;;;;2.17;1.37;;;12.20;93.40;;;;;;5011765;28;20959;-47
2021/05/23 04:30:18;;;;;;;2.40;1.10;;;12.20;93.40;;;;;;5011412;28;20633;-49
2021/05/23 04:32:45;;;;;;;2.20;1.03;;;12.30;93.40;;;;;;5011386;28;20697;-49
2021/05/23 04:35:14;;;;;;;1.10;1.00;;;12.30;93.30;;;;;;5011208;28;20664;-49
2021/05/23 04:37:41;;;;;;;1.43;1.07;;;12.30;93.30;;;;;;5010841;28;20664;-49
2021/05/23 04:40:08;;;;;;;6.53;1.90;;;12.30;93.30;;;;;;5010936;28;20640;-49
2021/05/23 04:42:35;;;;;;;1.00;0.90;;;12.30;93.20;;;;;;5010949;28;20643;-49
2021/05/23 04:45:02;;;;;;;3.30;1.10;;;12.20;93.40;;;;;;5011207;28;20655;-49
2021/05/23 04:47:30;;;;;;;0.90;0.90;;;12.20;93.20;;;;;;5010643;28;20674;-49
2021/05/23 04:49:56;;;;;;;4.00;1.60;;;12.20;93.50;;;;;;5010264;28;20694;-49
2021/05/23 04:52:24;;;;;;;5.43;1.60;;;12.20;93.50;;;;;;5010858;28;20693;-50
2021/05/23 04:54:51;;;;;;;2.57;1.40;;;12.20;93.40;;;;;;5011047;28;20632;-48
2021/05/23 04:57:18;;;;;;;3.23;2.10;;;12.30;93.30;;;;;;5010656;28;20682;-48
2021/05/23 04:59:45;;;;;;;2.93;2.20;;;12.20;93.10;;;;;;5010273;28;20628;-48
2021/05/23 05:02:12;;;;;;;3.97;1.57;;;12.10;93.20;;;;;;5010359;28;20687;-49
2021/05/23 05:04:38;;;;;;;2.07;1.93;;;12.10;93.00;;;;;;5010648;28;20654;-49
2021/05/23 05:07:05;;;;;;;2.60;1.53;;;12.10;93.30;;;;;;5010297;28;20632;-49
2021/05/23 05:09:33;;;;;;;6.27;2.20;;;12.10;93.40;;;;;;5010184;28;20756;-49
2021/05/23 05:11:59;;;;;;;3.60;2.43;;;12.10;93.20;;;;;;5010371;28;20632;-48
2021/05/23 05:14:26;;;;;;;3.30;1.90;;;12.10;93.50;;;;;;5010377;28;20628;-48
2021/05/23 05:16:53;;;;;;;2.47;2.03;;;12.10;93.30;;;;;;5010231;28;21239;-48
2021/05/23 05:19:19;;;;;;;2.13;1.80;;;12.10;93.20;;;;;;5009852;28;20624;-48
2021/05/23 05:21:46;;;;;;;1.67;1.57;;;12.10;93.20;;;;;;5010030;28;20628;-48
2021/05/23 05:24:13;;;;;;;3.13;2.00;;;12.10;93.20;;;;;;5010161;28;20644;-48
2021/05/23 05:26:41;;;;;;;5.10;3.60;;;12.00;93.20;;;;;;5010085;28;20657;-49
2021/05/23 05:29:07;;;;;;;1.50;1.40;;;12.10;93.10;;;;;;5009702;28;20646;-48
2021/05/23 05:31:34;;;;;;;5.00;2.40;;;12.20;92.90;;;;;;5010165;28;20688;-48
2021/05/23 05:34:01;;;;;;;3.07;2.30;;;12.20;92.80;;;;;;5009969;28;21049;-48
2021/05/23 05:36:28;;;;;;;4.53;2.30;;;12.30;92.90;;;;;;5010022;28;20675;-48
2021/05/23 05:38:54;;;;;;;3.93;2.33;;;12.30;92.50;;;;;;5009646;28;21079;-48
2021/05/23 05:41:21;;;;;;;2.07;1.90;;;12.30;92.60;;;;;;5010006;28;20637;-48
2021/05/23 05:43:49;;;;;;;4.57;3.10;;;12.40;92.30;;;;;;5009971;28;20676;-48
2021/05/23 05:46:15;;;;;;;2.20;1.93;;;12.40;92.20;;;;;;5009907;28;20731;-48
2021/05/23 05:48:42;;;;;;;1.70;1.60;;;12.40;92.50;;;;;;5001179;28;20679;-48
2021/05/23 05:51:09;;;;;;;3.33;2.07;;;12.50;92.20;;;;;;5009170;28;20623;-48
2021/05/23 05:53:36;;;;;;;3.90;2.20;;;12.50;92.20;;;;;;5009621;28;20630;-48
2021/05/23 05:56:02;;;;;;;3.30;1.93;;;12.60;92.00;;;;;;5009841;28;20714;-48
2021/05/23 05:58:29;;;;;;;3.73;2.07;;;12.60;91.90;;;;;;5009532;28;21251;-48
2021/05/23 06:00:57;;;;;;;3.00;2.00;;;12.70;92.10;;;;;;5009079;28;20689;-48
2021/05/23 06:03:23;;;;;;;2.57;2.37;;;12.70;91.90;;;;;;5009446;28;20664;-48
2021/05/23 06:05:50;;;;;;;5.60;2.30;;;12.70;92.10;;;;;;5009553;28;20672;-48
2021/05/23 06:08:17;;;;;;;2.60;2.20;;;12.80;92.10;;;;;;5007989;28;20635;-49
2021/05/23 06:10:43;;;;;;;7.90;2.70;;;12.80;91.80;;;;;;4990316;28;20657;-48
2021/05/23 06:13:10;;;;;;;2.43;1.90;;;12.70;91.80;;;;;;4997554;28;21070;-48
2021/05/23 06:15:37;;;;;;;3.53;2.47;;;12.70;91.70;;;;;;5009899;28;20695;-48
2021/05/23 06:18:05;;;;;;;3.57;2.10;;;12.70;91.80;;;;;;5008956;28;21208;-48
2021/05/23 06:20:32;;;;;;;4.77;2.10;;;12.60;91.90;;;;;;5009590;28;20672;-48
2021/05/23 06:22:58;;;;;;;3.27;2.90;;;12.60;91.80;;;;;;5009602;28;20635;-48
2021/05/23 06:25:25;;;;;;;3.13;2.13;;;12.60;91.80;;;;;;5009342;28;20663;-48
2021/05/23 06:27:52;;;;;;;3.80;2.70;;;12.70;91.80;;;;;;5009585;28;20633;-48
2021/05/23 06:30:20;;;;;;;3.03;2.10;;;12.90;91.60;;;;;;5009412;28;20624;-49
2021/05/23 06:32:46;;;;;;;2.27;2.07;;;12.90;91.70;;;;;;5009426;28;21283;-49
2021/05/23 06:35:14;;;;;;;4.30;1.80;;;12.80;91.30;;;;;;5009395;28;20723;-49
2021/05/23 06:37:41;;;;;;;1.40;1.30;;;12.90;91.50;;;;;;5008770;28;20690;-49
2021/05/23 06:40:09;;;;;;;2.00;1.80;;;13.00;91.20;;;;;;5009322;28;20631;-49
2021/05/23 06:42:35;;;;;;;2.37;1.90;;;13.00;91.10;;;;;;5009257;28;20690;-49
2021/05/23 06:45:02;;;;;;;1.73;1.60;;;13.10;90.70;;;;;;5009239;28;20710;-48
2021/05/23 06:47:31;;;;;;;2.93;1.93;;;13.10;90.20;;;;;;5008305;28;20624;-49
2021/05/23 06:49:57;;;;;;;1.60;1.50;;;13.10;90.50;;;;;;5009485;28;20998;-49
2021/05/23 06:52:26;;;;;;;2.20;2.00;;;13.20;90.00;;;;;;5009068;28;20632;-49
2021/05/23 06:54:53;;;;;;;2.43;2.23;;;13.10;90.20;;;;;;5009143;28;20627;-49
2021/05/23 06:57:19;;;;;;;4.23;3.87;;;13.10;90.70;;;;;;5008699;28;20623;-49
2021/05/23 06:59:46;;;;;;;3.03;2.83;;;13.20;90.70;;;;;;5009124;28;20635;-49
2021/05/23 07:02:13;;;;;;;3.00;2.43;;;13.30;90.80;;;;;;5009585;28;21189;-49
2021/05/23 07:04:40;;;;;;;4.43;2.70;;;13.30;90.50;;;;;;5008721;28;20620;-49
2021/05/23 07:07:06;;;;;;;3.90;2.77;;;13.40;90.40;;;;;;5008769;28;20679;-48
2021/05/23 07:09:34;;;;;;;3.03;2.50;;;13.40;90.50;;;;;;5009442;28;21180;-47
2021/05/23 07:12:01;;;;;;;3.30;2.83;;;13.50;90.40;;;;;;5009616;28;20636;-48
2021/05/23 07:14:28;;;;;;;4.13;3.23;;;13.70;90.40;;;;;;5012630;28;20666;-48
2021/05/23 07:16:54;;;;;;;2.53;2.33;;;13.80;90.10;;;;;;5012744;28;20690;-48
2021/05/23 07:19:21;;;;;;;4.43;3.87;;;13.90;88.90;;;;;;5011719;28;20717;-48
2021/05/23 07:21:48;;;;;;;1.70;1.60;;;14.00;88.20;;;;;;5012232;28;20713;-48
2021/05/23 07:24:15;;;;;;;2.83;2.63;;;14.00;87.40;;;;;;5012287;28;20632;-48
2021/05/23 07:26:43;;;;;;;2.83;2.57;;;14.10;87.90;;;;;;5012760;28;20725;-48
2021/05/23 07:29:10;;;;;;;3.00;2.80;;;14.20;87.40;;;;;;5012086;28;20628;-48
2021/05/23 07:31:36;;;;;;;2.13;1.90;;;14.20;86.90;;;;;;5012217;28;20759;-48
2021/05/23 07:34:03;;;;;;;4.03;2.07;;;14.20;86.90;;;;;;5010865;28;20632;-48
2021/05/23 07:36:30;;;;;;;1.90;1.80;;;14.30;87.00;;;;;;5012299;28;21230;-48
2021/05/23 07:38:57;;;;;;;2.20;1.97;;;14.60;86.50;;;;;;5011368;28;20718;-47
2021/05/23 07:41:24;;;;;;;1.70;1.60;;;14.80;84.30;;;;;;5010434;28;20629;-48
2021/05/23 07:43:51;;;;;;;2.80;2.60;;;15.00;82.80;;;;;;5012286;28;20682;-48
2021/05/23 07:46:18;;;;;;;2.30;2.10;;;14.90;82.50;;;;;;5012053;28;21282;-48
2021/05/23 07:48:45;;;;;;;2.77;2.20;;;14.90;82.50;;;;;;5011852;28;20643;-48
2021/05/23 07:51:11;;;;;;;2.70;1.77;;;14.80;81.70;;;;;;5012244;28;20636;-47
2021/05/23 07:53:38;;;;;;;4.67;2.40;;;14.70;82.80;;;;;;5011773;28;20990;-48
2021/05/23 07:56:05;;;;;;;1.80;1.70;;;14.80;83.50;;;;;;5006638;28;20734;-48
2021/05/23 07:58:32;;;;;;;1.87;1.67;;;14.70;82.20;;;;;;5004584;28;20725;-48
2021/05/23 08:01:00;;;;;;;4.50;2.03;;;14.70;82.10;;;;;;5011930;28;20709;-49
2021/05/23 08:03:27;;;;;;;2.07;1.60;;;14.50;82.40;;;;;;4992246;28;20632;-48
2021/05/23 08:05:54;;;;;;;1.30;1.20;;;14.50;82.40;;;;;;4991839;28;20992;-47
2021/05/23 08:08:21;;;;;;;2.30;1.50;;;14.40;81.80;;;;;;4993194;28;20703;-49
2021/05/23 08:10:48;;;;;;;1.60;1.50;;;14.30;81.50;;;;;;5011989;28;20622;-49
2021/05/23 08:13:15;;;;;;;1.90;1.60;;;14.30;82.40;;;;;;5012505;28;21243;-48
2021/05/23 08:15:43;;;;;;;1.80;1.70;;;14.40;82.60;;;;;;5011318;28;20663;-49
2021/05/23 08:18:11;;;;;;;1.80;1.70;;;14.40;81.30;;;;;;4997941;28;20719;-49
2021/05/23 08:20:38;;;;;;;1.47;1.37;;;14.40;81.70;;;;;;4994913;28;21054;-48
2021/05/23 08:23:04;;;;;;;3.57;1.33;;;14.60;82.70;;;;;;5001859;28;20697;-49
2021/05/23 08:25:31;;;;;;;1.50;1.40;;;14.70;81.50;;;;;;5010522;28;20725;-49
2021/05/23 08:27:58;;;;;;;1.83;1.40;;;14.90;80.70;;;;;;4993088;28;20613;-49
2021/05/23 08:30:25;;;;;;;2.40;1.10;;;15.00;79.40;;;;;;5001998;28;20675;-49
2021/05/23 08:32:52;;;;;;;5.20;1.67;;;15.20;79.40;;;;;;5010934;28;20713;-49
2021/05/23 08:35:19;;;;;;;3.60;1.70;;;15.40;76.20;;;;;;5010722;28;21037;-50
2021/05/23 08:37:46;;;;;;;3.63;2.00;;;15.40;76.20;;;;;;5010939;28;20635;-49
2021/05/23 08:40:13;;;;;;;1.00;0.87;;;15.50;75.20;;;;;;5010894;28;20698;-49
2021/05/23 08:42:40;;;;;;;2.80;1.80;;;15.40;73.50;;;;;;5011480;28;20654;-48
2021/05/23 08:45:08;;;;;;;3.67;1.40;;;15.30;74.20;;;;;;5011558;28;20710;-48
2021/05/23 08:47:39;;;;;;;1.40;1.17;;;15.20;73.60;;;;;;5009428;28;21185;-49
2021/05/23 08:50:07;;;;;;;4.03;2.17;;;15.40;74.60;;;;;;5010626;28;20735;-49
2021/05/23 08:52:35;;;;;;;1.50;1.20;;;15.60;73.40;;;;;;5010853;28;21061;-49
2021/05/23 08:55:01;;;;;;;1.70;1.30;;;15.70;71.40;;;;;;5011338;28;21009;-48
2021/05/23 08:57:28;;;;;;;2.47;1.67;;;15.60;72.10;;;;;;5010498;28;20723;-48
2021/05/23 08:59:55;;;;;;;1.50;1.40;;;15.60;73.20;;;;;;5010425;28;20955;-48
2021/05/23 09:02:22;;;;;;;3.73;1.60;;;15.40;73.10;;;;;;5010915;28;20640;-49
2021/05/23 09:04:49;;;;;;;1.30;1.20;;;15.40;73.90;;;;;;5010342;28;20730;-48
2021/05/23 09:07:15;;;;;;;4.80;2.37;;;15.40;72.40;;;;;;5010330;28;21264;-48
2021/05/23 09:09:44;;;;;;;4.10;1.97;;;15.20;71.80;;;;;;5010087;28;21055;-48
2021/05/23 09:12:11;;;;;;;2.33;1.50;;;15.10;72.40;;;;;;5010034;28;20627;-48
2021/05/23 09:14:39;;;;;;;2.57;1.30;;;15.20;73.20;;;;;;5009171;28;20941;-48
2021/05/23 09:17:06;;;;;;;2.37;1.43;;;15.30;72.90;;;;;;4990089;28;20628;-48
2021/05/23 09:19:42;;;;;;;2.03;1.20;;;15.40;73.00;;;;;;4990824;28;20687;-48
2021/05/23 09:22:09;;;;;;;1.57;1.47;;;15.40;71.40;;;;;;4990111;28;20656;-47
2021/05/23 09:24:48;;;;;;;3.70;1.27;;;15.30;71.80;;;;;;4990417;28;20625;-48
2021/05/23 09:27:14;;;;;;;1.60;1.47;;;15.30;72.00;;;;;;4990527;28;20625;-48
2021/05/23 09:29:41;;;;;;;1.47;1.20;;;15.10;72.60;;;;;;4994879;28;20623;-48
2021/05/23 09:32:14;;;;;;;5.27;1.77;;;15.10;73.00;;;;;;5009932;28;20779;-48
2021/05/23 09:34:41;;;;;;;2.70;1.97;;;15.00;72.90;;;;;;5010397;28;20689;-48
2021/05/23 09:37:12;;;;;;;3.30;2.10;;;15.10;73.00;;;;;;5008837;28;20632;-48
2021/05/23 09:39:39;;;;;;;6.40;2.77;;;15.30;72.50;;;;;;5010106;28;20672;-48
2021/05/23 09:42:10;;;;;;;2.93;2.73;;;15.70;70.70;;;;;;5010169;28;20639;-48
2021/05/23 09:44:37;;;;;;;2.37;2.17;;;16.10;68.60;;;;;;5010461;28;21262;-48
2021/05/23 09:47:07;;;;;;;2.17;1.97;;;16.50;67.20;;;;;;5010075;28;21140;-49
2021/05/23 09:49:40;;;;;;;5.00;2.77;;;16.50;65.50;;;;;;5008076;28;20620;-47
2021/05/23 09:52:07;;;;;;;2.77;2.57;;;16.60;65.00;;;;;;5009796;28;20690;-48
2021/05/23 09:54:43;;;;;;;2.90;2.63;;;16.70;64.50;;;;;;5009947;28;21218;-51
2021/05/23 09:57:12;;;;;;;3.43;1.97;;;16.70;64.80;;;;;;5009298;28;20624;-48
2021/05/23 09:59:39;;;;;;;3.40;2.63;;;16.90;62.40;;;;;;5009448;28;20664;-48
2021/05/23 10:02:06;;;;;;;3.80;3.50;;;16.70;60.20;;;;;;5009416;28;20743;-48
2021/05/23 10:04:34;;;;;;;7.70;2.30;;;16.60;61.40;;;;;;5010016;28;20644;-48
2021/05/23 10:07:01;;;;;;;4.73;2.30;;;16.80;61.60;;;;;;5009813;28;21172;-48
2021/05/23 10:09:28;;;;;;;3.23;2.87;;;16.90;59.60;;;;;;5009545;28;20814;-48
2021/05/23 10:11:55;;;;;;;4.53;2.23;;;17.00;59.20;;;;;;5009619;28;20969;-47
2021/05/23 10:14:22;;;;;;;3.10;2.40;;;17.10;59.20;;;;;;5009128;28;20973;-48
2021/05/23 10:16:51;;;;;;;2.10;1.90;;;17.20;59.10;;;;;;5010836;28;20791;-48
2021/05/23 10:19:18;;;;;;;3.37;2.00;;;17.40;58.60;;;;;;5009871;28;20742;-47
2021/05/23 10:21:47;;;;;;;2.00;1.90;;;17.50;57.10;;;;;;5010773;28;20640;-47
2021/05/23 10:24:17;;;;;;;2.87;2.17;;;17.60;57.60;;;;;;5010538;28;20627;-48
2021/05/23 10:26:43;;;;;;;2.80;2.40;;;17.60;56.90;;;;;;5010175;28;20714;-48
2021/05/23 10:29:10;;;;;;;1.60;1.50;;;17.50;55.70;;;;;;5009873;28;20616;-48
2021/05/23 10:31:38;;;;;;;2.10;1.90;;;17.70;55.50;;;;;;5010009;28;20631;-48
2021/05/23 10:34:04;;;;;;;1.80;1.70;;;17.50;55.60;;;;;;5010703;28;20631;-48
2021/05/23 10:36:32;;;;;;;2.83;1.80;;;17.50;56.20;;;;;;5010900;28;21258;-48
2021/05/23 10:39:00;;;;;;;2.43;1.90;;;17.40;57.00;;;;;;5009921;28;21080;-49
2021/05/23 10:41:27;;;;;;;1.70;1.60;;;17.50;56.50;;;;;;5011129;28;21219;-48
2021/05/23 10:43:57;;;;;;;2.20;1.77;;;17.60;57.30;;;;;;5010083;28;20669;-48
2021/05/23 10:46:23;;;;;;;2.90;1.50;;;18.00;57.90;;;;;;5009142;28;20710;-48
2021/05/23 10:48:55;;;;;;;2.00;1.47;;;18.20;55.80;;;;;;5011727;28;20658;-48
2021/05/23 10:51:22;;;;;;;3.40;2.07;;;18.30;55.00;;;;;;5002096;28;20647;-48
2021/05/23 10:53:49;;;;;;;2.53;2.33;;;18.10;54.60;;;;;;4993677;28;20632;-48
2021/05/23 10:56:25;;;;;;;1.97;1.87;;;18.00;55.50;;;;;;4994013;28;20649;-48
2021/05/23 10:58:53;;;;;;;2.43;2.23;;;17.80;55.60;;;;;;4993098;28;20794;-48
2021/05/23 11:01:35;;;;;;;4.40;2.13;;;17.70;56.60;;;;;;5012736;28;20628;-53
2021/05/23 11:04:08;;;;;;;4.63;2.77;;;17.50;56.30;;;;;;5015513;28;20638;-48
2021/05/23 11:06:34;;;;;;;2.30;1.53;;;17.40;56.80;;;;;;5014098;28;20644;-48
2021/05/23 11:09:06;;;;;;;2.10;1.40;;;17.50;56.00;;;;;;5013114;28;20649;-48
2021/05/23 11:11:33;;;;;;;2.93;1.43;;;17.50;55.60;;;;;;5012851;28;20996;-48
2021/05/23 11:14:15;;;;;;;2.70;1.37;;;17.50;55.70;;;;;;5012454;28;20631;-48
2021/05/23 11:16:52;;;;;;;1.53;1.30;;;17.40;56.50;;;;;;5012671;28;20745;-48
2021/05/23 11:19:20;;;;;;;2.60;1.63;;;17.50;56.70;;;;;;5013116;28;20659;-48
2021/05/23 11:21:48;;;;;;;2.10;1.13;;;17.50;57.10;;;;;;5013539;28;20673;-48
2021/05/23 11:24:15;;;;;;;1.80;1.00;;;17.60;57.50;;;;;;5013236;28;20636;-48
2021/05/23 11:26:42;;;;;;;1.10;0.70;;;18.00;56.10;;;;;;5013266;28;20741;-48
2021/05/23 11:29:08;;;;;;;1.67;1.00;;;18.20;54.20;;;;;;5012900;28;20706;-48
2021/05/23 11:31:36;;;;;;;2.40;1.50;;;18.50;54.00;;;;;;5013314;28;20699;-48
2021/05/23 11:34:04;;;;;;;1.33;1.00;;;18.70;53.60;;;;;;5012914;28;20628;-48
2021/05/23 11:36:32;;;;;;;2.13;0.97;;;19.00;53.10;;;;;;5012663;28;21496;-48
2021/05/23 11:39:00;;;;;;;3.50;1.40;;;19.10;52.90;;;;;;5012574;28;20656;-48
2021/05/23 11:41:28;;;;;;;2.13;0.90;;;18.90;52.30;;;;;;5012947;28;20624;-48
2021/05/23 11:43:56;;;;;;;2.10;1.10;;;18.70;52.30;;;;;;5024402;28;20630;-48
2021/05/23 11:46:23;;;;;;;2.07;1.20;;;18.70;51.90;;;;;;5011635;28;21192;-48
2021/05/23 11:48:50;;;;;;;3.03;1.50;;;18.60;51.20;;;;;;5020101;28;20615;-48
2021/05/23 11:51:22;;;;;;;3.57;2.00;;;18.60;51.80;;;;;;5032240;28;20662;-49
2021/05/23 11:53:50;;;;;;;2.10;1.37;;;18.90;50.20;;;;;;5032111;28;20723;-49
2021/05/23 11:56:17;;;;;;;1.13;1.00;;;18.80;49.50;;;;;;5032326;28;21010;-48
2021/05/23 11:58:45;;;;;;;4.03;1.40;;;18.60;50.20;;;;;;5030757;28;20658;-48
2021/05/23 12:01:14;;;;;;;0.77;0.77;;;18.40;50.50;;;;;;5024316;28;20990;-48
2021/05/23 12:03:41;;;;;;;0.87;0.60;;;18.00;51.20;;;;;;5031459;28;20698;-48
2021/05/23 12:06:17;;;;;;;2.53;0.60;;;17.60;52.70;;;;;;5031289;28;20662;-48
2021/05/23 12:08:44;;;;;;;2.87;1.67;;;17.30;54.70;;;;;;5031726;28;20622;-49
2021/05/23 12:11:11;;;;;;;1.57;1.10;;;17.30;56.80;;;;;;5031348;28;21249;-48
2021/05/23 12:13:39;;;;;;;2.87;1.30;;;17.40;57.80;;;;;;5016023;28;20791;-49
2021/05/23 12:16:06;;;;;;;0.90;0.60;;;17.50;57.60;;;;;;5011472;28;20714;-49
2021/05/23 12:18:34;;;;;;;5.37;1.20;;;17.90;56.60;;;;;;5011069;28;20624;-49
2021/05/23 12:21:03;;;;;;;1.93;1.20;;;18.20;55.80;;;;;;5011915;28;20624;-48
2021/05/23 12:23:29;;;;;;;0.70;0.53;;;18.60;54.50;;;;;;5011897;28;20678;-49
2021/05/23 12:25:56;;;;;;;1.67;0.80;;;19.10;53.10;;;;;;5011527;28;20743;-49
2021/05/23 12:28:34;;;;;;;1.57;0.73;;;19.30;51.60;;;;;;5011295;28;20636;-49
2021/05/23 12:31:01;;;;;;;0.83;0.60;;;19.50;49.10;;;;;;5011452;28;20682;-48
2021/05/23 12:33:27;;;;;;;1.27;0.50;;;19.60;48.60;;;;;;5011351;28;20632;-49
2021/05/23 12:35:54;;;;;;;1.13;0.47;;;19.40;48.50;;;;;;5011118;28;21248;-49
2021/05/23 12:38:21;;;;;;;0.87;0.73;;;19.40;48.70;;;;;;5010384;28;20709;-49
2021/05/23 12:40:49;;;;;;;0.77;0.67;;;19.50;49.20;;;;;;5011098;28;20717;-49
2021/05/23 12:43:16;;;;;;;1.87;0.80;;;19.70;49.00;;;;;;5011272;28;20735;-49
2021/05/23 12:45:45;;;;;;;1.10;0.40;;;20.00;48.60;;;;;;5010793;28;20722;-49
2021/05/23 12:48:12;;;;;;;3.17;0.60;;;20.80;44.10;;;;;;5009887;28;20705;-49
2021/05/23 12:50:40;;;;;;;4.10;0.80;;;20.70;42.20;;;;;;5010746;28;21100;-49